This is the latest recevied weather packets stored in our database for station/object KR4CWL-13. If no packets are shown the sender has not sent any weather packets the latest 10 day(s).
| Time | Temp. | Humidity | Pressure | Rain* | Wind** | Luminosity | Snow |
|---|---|---|---|---|---|---|---|
| 1777166007 | 16.67° C | 99% | 1003 hPa | 0 mm | - | - | - |
| 1777165407 | 16.67° C | 99% | 1002.7 hPa | 0 mm | - | - | - |
| 1777164807 | 16.67° C | 99% | 1002.7 hPa | 0 mm | - | - | - |
| 1777164207 | 16.67° C | 99% | 1002.7 hPa | 0 mm | - | - | - |
| 1777163607 | 16.67° C | 99% | 1002.7 hPa | 0 mm | - | - | - |
| 1777163007 | 16.67° C | 99% | 1002.4 hPa | 0 mm | - | - | - |
| 1777162407 | 17.22° C | 99% | 1002.4 hPa | 0 mm | - | - | - |
| 1777161807 | 17.22° C | 99% | 1002 hPa | 0 mm | - | - | - |
| 1777161207 | 17.22° C | 99% | 1002 hPa | 0 mm | - | - | - |
| 1777160607 | 17.22° C | 99% | 1002 hPa | 0 mm | - | - | - |
| 1777160007 | 17.78° C | 98% | 1002 hPa | 0 mm | - | - | - |
| 1777159407 | 17.78° C | 96% | 1002 hPa | 0 mm | - | - | - |
| 1777158807 | 18.89° C | 91% | 1002.4 hPa | 0 mm | - | - | - |
| 1777158207 | 19.44° C | 84% | 1002.4 hPa | 0 mm | - | - | - |
| 1777157607 | 20° C | 79% | 1001.4 hPa | 0 mm | - | - | - |
| 1777157007 | 20.56° C | 76% | 1001 hPa | 0 mm | - | - | - |
| 1777156407 | 21.11° C | 74% | 1001 hPa | 0 mm | - | - | - |
| 1777155807 | 21.67° C | 72% | 1000.7 hPa | 0 mm | - | - | - |
| 1777155207 | 22.78° C | 67% | 1000 hPa | 0 mm | - | - | - |
| 1777154607 | 25.56° C | 55% | 1000 hPa | 0 mm | - | - | - |
| 1777154007 | 26.11° C | 53% | 999.7 hPa | 0 mm | - | - | - |
| 1777153407 | 26.67° C | 52% | 999.3 hPa | 0 mm | - | - | - |
| 1777152807 | 26.67° C | 49% | 999.3 hPa | 0 mm | - | - | - |
| 1777152207 | 27.22° C | 48% | 999.3 hPa | 0 mm | - | - | - |
| 1777151606 | 27.22° C | 47% | 999.3 hPa | 0 mm | - | - | - |
* Rain since midnight (hover to see other rain measurements)
** Current wind speed in m/s (hover to see current wind gust speed)